sensor_id;sensor_type;location;lat;lon;timestamp;P1;durP1;ratioP1;P2;durP2;ratioP2
64986;SDS011;67903;52.108;9.358;2023-05-10T00:00:56;5.82;;;2.72;;
64986;SDS011;67903;52.108;9.358;2023-05-10T00:03:43;4.93;;;2.95;;
64986;SDS011;67903;52.108;9.358;2023-05-10T00:06:31;7.30;;;3.13;;
64986;SDS011;67903;52.108;9.358;2023-05-10T00:09:18;4.32;;;2.80;;
64986;SDS011;67903;52.108;9.358;2023-05-10T00:12:06;3.22;;;2.92;;
64986;SDS011;67903;52.108;9.358;2023-05-10T00:14:53;4.47;;;3.28;;
64986;SDS011;67903;52.108;9.358;2023-05-10T00:17:40;4.90;;;2.75;;
64986;SDS011;67903;52.108;9.358;2023-05-10T00:20:27;4.95;;;2.90;;
64986;SDS011;67903;52.108;9.358;2023-05-10T00:23:14;5.68;;;3.17;;
64986;SDS011;67903;52.108;9.358;2023-05-10T00:26:01;6.38;;;2.83;;
64986;SDS011;67903;52.108;9.358;2023-05-10T00:28:48;3.63;;;2.90;;
64986;SDS011;67903;52.108;9.358;2023-05-10T00:31:37;3.85;;;2.83;;
64986;SDS011;67903;52.108;9.358;2023-05-10T00:34:24;3.97;;;2.83;;
64986;SDS011;67903;52.108;9.358;2023-05-10T00:37:11;4.85;;;3.25;;
64986;SDS011;67903;52.108;9.358;2023-05-10T00:39:58;4.90;;;3.17;;
64986;SDS011;67903;52.108;9.358;2023-05-10T00:42:46;4.38;;;2.80;;
64986;SDS011;67903;52.108;9.358;2023-05-10T00:45:33;6.35;;;3.47;;
64986;SDS011;67903;52.108;9.358;2023-05-10T00:48:22;4.97;;;3.38;;
64986;SDS011;67903;52.108;9.358;2023-05-10T00:51:10;3.92;;;2.85;;
64986;SDS011;67903;52.108;9.358;2023-05-10T00:53:57;4.18;;;2.95;;
64986;SDS011;67903;52.108;9.358;2023-05-10T00:56:45;4.18;;;3.15;;
64986;SDS011;67903;52.108;9.358;2023-05-10T00:59:35;4.45;;;3.05;;
64986;SDS011;67903;52.108;9.358;2023-05-10T01:02:22;3.38;;;2.90;;
64986;SDS011;67903;52.108;9.358;2023-05-10T01:05:09;5.38;;;3.40;;
64986;SDS011;67903;52.108;9.358;2023-05-10T01:07:57;3.80;;;3.10;;
64986;SDS011;67903;52.108;9.358;2023-05-10T01:10:44;4.35;;;3.03;;
64986;SDS011;67903;52.108;9.358;2023-05-10T01:13:39;4.65;;;3.20;;
64986;SDS011;67903;52.108;9.358;2023-05-10T01:16:29;3.53;;;3.00;;
64986;SDS011;67903;52.108;9.358;2023-05-10T01:19:23;3.97;;;3.05;;
64986;SDS011;67903;52.108;9.358;2023-05-10T01:22:39;3.40;;;3.05;;
64986;SDS011;67903;52.108;9.358;2023-05-10T01:26:02;3.22;;;2.90;;
64986;SDS011;67903;52.108;9.358;2023-05-10T01:32:35;5.55;;;3.30;;
64986;SDS011;67903;52.108;9.358;2023-05-10T01:35:52;4.82;;;3.35;;
64986;SDS011;67903;52.108;9.358;2023-05-10T01:41:47;5.60;;;3.42;;
64986;SDS011;67903;52.108;9.358;2023-05-10T01:44:40;4.25;;;3.70;;
64986;SDS011;67903;52.108;9.358;2023-05-10T01:47:44;4.28;;;3.63;;
64986;SDS011;67903;52.108;9.358;2023-05-10T01:50:42;4.25;;;3.85;;
64986;SDS011;67903;52.108;9.358;2023-05-10T01:53:32;5.32;;;3.90;;
64986;SDS011;67903;52.108;9.358;2023-05-10T01:56:24;3.85;;;3.55;;
64986;SDS011;67903;52.108;9.358;2023-05-10T01:59:15;5.93;;;3.75;;
64986;SDS011;67903;52.108;9.358;2023-05-10T02:02:05;4.10;;;3.50;;
64986;SDS011;67903;52.108;9.358;2023-05-10T02:04:53;3.95;;;3.20;;
64986;SDS011;67903;52.108;9.358;2023-05-10T02:07:41;5.25;;;3.70;;
64986;SDS011;67903;52.108;9.358;2023-05-10T02:10:30;4.30;;;3.65;;
64986;SDS011;67903;52.108;9.358;2023-05-10T02:13:20;3.83;;;3.53;;
64986;SDS011;67903;52.108;9.358;2023-05-10T02:16:08;4.97;;;3.75;;
64986;SDS011;67903;52.108;9.358;2023-05-10T02:18:58;3.63;;;3.33;;
64986;SDS011;67903;52.108;9.358;2023-05-10T02:21:47;7.00;;;4.03;;
64986;SDS011;67903;52.108;9.358;2023-05-10T02:24:37;4.85;;;3.60;;
64986;SDS011;67903;52.108;9.358;2023-05-10T02:27:26;4.15;;;3.53;;
64986;SDS011;67903;52.108;9.358;2023-05-10T02:30:15;3.88;;;3.58;;
64986;SDS011;67903;52.108;9.358;2023-05-10T02:33:04;4.82;;;3.83;;
64986;SDS011;67903;52.108;9.358;2023-05-10T02:35:52;4.63;;;3.67;;
64986;SDS011;67903;52.108;9.358;2023-05-10T02:38:40;4.57;;;3.78;;
64986;SDS011;67903;52.108;9.358;2023-05-10T02:41:28;4.30;;;3.90;;
64986;SDS011;67903;52.108;9.358;2023-05-10T02:44:19;5.82;;;3.50;;
64986;SDS011;67903;52.108;9.358;2023-05-10T02:47:07;4.38;;;3.78;;
64986;SDS011;67903;52.108;9.358;2023-05-10T02:49:54;6.72;;;3.85;;
64986;SDS011;67903;52.108;9.358;2023-05-10T02:52:49;4.43;;;4.05;;
64986;SDS011;67903;52.108;9.358;2023-05-10T02:55:40;4.43;;;3.95;;
64986;SDS011;67903;52.108;9.358;2023-05-10T02:58:31;4.30;;;3.90;;
64986;SDS011;67903;52.108;9.358;2023-05-10T03:01:18;4.97;;;4.00;;
64986;SDS011;67903;52.108;9.358;2023-05-10T03:04:05;5.43;;;4.13;;
64986;SDS011;67903;52.108;9.358;2023-05-10T03:06:53;4.90;;;4.50;;
64986;SDS011;67903;52.108;9.358;2023-05-10T03:09:41;7.10;;;4.70;;
64986;SDS011;67903;52.108;9.358;2023-05-10T03:15:47;5.70;;;4.82;;
64986;SDS011;67903;52.108;9.358;2023-05-10T03:18:45;5.93;;;4.55;;
64986;SDS011;67903;52.108;9.358;2023-05-10T03:21:40;5.53;;;4.65;;
64986;SDS011;67903;52.108;9.358;2023-05-10T03:24:29;5.22;;;4.72;;
64986;SDS011;67903;52.108;9.358;2023-05-10T03:27:19;5.18;;;4.68;;
64986;SDS011;67903;52.108;9.358;2023-05-10T03:30:08;6.43;;;4.32;;
64986;SDS011;67903;52.108;9.358;2023-05-10T03:32:58;4.43;;;4.03;;
64986;SDS011;67903;52.108;9.358;2023-05-10T03:35:57;6.05;;;4.82;;
64986;SDS011;67903;52.108;9.358;2023-05-10T03:38:45;5.72;;;4.90;;
64986;SDS011;67903;52.108;9.358;2023-05-10T03:41:33;6.15;;;4.68;;
64986;SDS011;67903;52.108;9.358;2023-05-10T03:44:20;5.40;;;4.90;;
64986;SDS011;67903;52.108;9.358;2023-05-10T03:47:07;5.50;;;5.05;;
64986;SDS011;67903;52.108;9.358;2023-05-10T03:49:54;7.15;;;5.38;;
64986;SDS011;67903;52.108;9.358;2023-05-10T03:52:42;6.20;;;5.63;;
64986;SDS011;67903;52.108;9.358;2023-05-10T03:55:30;5.38;;;4.88;;
64986;SDS011;67903;52.108;9.358;2023-05-10T03:58:20;5.47;;;4.72;;
64986;SDS011;67903;52.108;9.358;2023-05-10T04:01:08;5.25;;;4.70;;
64986;SDS011;67903;52.108;9.358;2023-05-10T04:03:55;5.28;;;4.78;;
64986;SDS011;67903;52.108;9.358;2023-05-10T04:06:42;5.80;;;4.93;;
64986;SDS011;67903;52.108;9.358;2023-05-10T04:09:29;4.80;;;4.40;;
64986;SDS011;67903;52.108;9.358;2023-05-10T04:12:16;5.18;;;4.65;;
64986;SDS011;67903;52.108;9.358;2023-05-10T04:15:03;5.32;;;4.82;;
64986;SDS011;67903;52.108;9.358;2023-05-10T04:17:51;5.78;;;5.22;;
64986;SDS011;67903;52.108;9.358;2023-05-10T04:20:38;6.28;;;5.65;;
64986;SDS011;67903;52.108;9.358;2023-05-10T04:23:25;8.65;;;5.35;;
64986;SDS011;67903;52.108;9.358;2023-05-10T04:26:13;7.97;;;6.25;;
64986;SDS011;67903;52.108;9.358;2023-05-10T04:29:00;7.43;;;6.13;;
64986;SDS011;67903;52.108;9.358;2023-05-10T04:31:47;7.20;;;6.50;;
64986;SDS011;67903;52.108;9.358;2023-05-10T04:34:36;7.43;;;6.60;;
64986;SDS011;67903;52.108;9.358;2023-05-10T04:37:23;7.75;;;6.93;;
64986;SDS011;67903;52.108;9.358;2023-05-10T04:40:10;9.18;;;7.45;;
64986;SDS011;67903;52.108;9.358;2023-05-10T04:42:58;8.80;;;7.90;;
64986;SDS011;67903;52.108;9.358;2023-05-10T04:45:45;9.07;;;8.18;;
64986;SDS011;67903;52.108;9.358;2023-05-10T04:48:32;8.15;;;7.45;;
64986;SDS011;67903;52.108;9.358;2023-05-10T04:51:20;10.52;;;9.20;;
64986;SDS011;67903;52.108;9.358;2023-05-10T04:54:07;10.60;;;9.60;;
64986;SDS011;67903;52.108;9.358;2023-05-10T04:56:54;10.82;;;9.05;;
64986;SDS011;67903;52.108;9.358;2023-05-10T04:59:41;9.45;;;7.93;;
64986;SDS011;67903;52.108;9.358;2023-05-10T05:02:29;13.75;;;9.10;;
64986;SDS011;67903;52.108;9.358;2023-05-10T05:05:16;11.43;;;9.63;;
64986;SDS011;67903;52.108;9.358;2023-05-10T05:08:03;13.50;;;11.32;;
64986;SDS011;67903;52.108;9.358;2023-05-10T05:10:50;15.75;;;11.50;;
64986;SDS011;67903;52.108;9.358;2023-05-10T05:13:37;10.18;;;8.77;;
64986;SDS011;67903;52.108;9.358;2023-05-10T05:16:25;9.38;;;7.82;;
64986;SDS011;67903;52.108;9.358;2023-05-10T05:19:13;11.52;;;9.73;;
64986;SDS011;67903;52.108;9.358;2023-05-10T05:22:00;11.80;;;10.27;;
64986;SDS011;67903;52.108;9.358;2023-05-10T05:24:47;10.82;;;8.52;;
64986;SDS011;67903;52.108;9.358;2023-05-10T05:27:34;9.32;;;8.43;;
64986;SDS011;67903;52.108;9.358;2023-05-10T05:30:21;9.38;;;8.02;;
64986;SDS011;67903;52.108;9.358;2023-05-10T05:33:08;13.07;;;11.50;;
64986;SDS011;67903;52.108;9.358;2023-05-10T05:35:55;11.32;;;9.75;;
64986;SDS011;67903;52.108;9.358;2023-05-10T05:38:42;11.65;;;9.80;;
64986;SDS011;67903;52.108;9.358;2023-05-10T05:41:29;10.13;;;7.82;;
64986;SDS011;67903;52.108;9.358;2023-05-10T05:44:16;9.70;;;7.85;;
64986;SDS011;67903;52.108;9.358;2023-05-10T05:47:03;10.25;;;8.40;;
64986;SDS011;67903;52.108;9.358;2023-05-10T05:49:50;8.50;;;7.47;;
64986;SDS011;67903;52.108;9.358;2023-05-10T05:52:37;7.40;;;6.50;;
64986;SDS011;67903;52.108;9.358;2023-05-10T05:55:24;7.90;;;7.20;;
64986;SDS011;67903;52.108;9.358;2023-05-10T05:58:12;8.65;;;7.75;;
64986;SDS011;67903;52.108;9.358;2023-05-10T06:00:59;8.88;;;7.97;;
64986;SDS011;67903;52.108;9.358;2023-05-10T06:03:46;10.52;;;8.23;;
64986;SDS011;67903;52.108;9.358;2023-05-10T06:06:35;7.85;;;7.07;;
64986;SDS011;67903;52.108;9.358;2023-05-10T06:09:22;9.50;;;7.97;;
64986;SDS011;67903;52.108;9.358;2023-05-10T06:12:11;9.55;;;8.18;;
64986;SDS011;67903;52.108;9.358;2023-05-10T06:14:58;8.90;;;8.00;;
64986;SDS011;67903;52.108;9.358;2023-05-10T06:17:45;7.95;;;7.15;;
64986;SDS011;67903;52.108;9.358;2023-05-10T06:20:33;9.38;;;7.93;;
64986;SDS011;67903;52.108;9.358;2023-05-10T06:23:20;10.48;;;8.65;;
64986;SDS011;67903;52.108;9.358;2023-05-10T06:26:09;8.85;;;7.63;;
64986;SDS011;67903;52.108;9.358;2023-05-10T06:28:56;8.52;;;6.20;;
64986;SDS011;67903;52.108;9.358;2023-05-10T06:31:43;6.03;;;5.38;;
64986;SDS011;67903;52.108;9.358;2023-05-10T06:34:30;6.95;;;6.20;;
64986;SDS011;67903;52.108;9.358;2023-05-10T06:37:18;6.60;;;5.45;;
64986;SDS011;67903;52.108;9.358;2023-05-10T06:40:05;6.55;;;5.95;;
64986;SDS011;67903;52.108;9.358;2023-05-10T06:42:53;6.72;;;6.13;;
64986;SDS011;67903;52.108;9.358;2023-05-10T06:45:40;6.00;;;5.30;;
64986;SDS011;67903;52.108;9.358;2023-05-10T06:48:27;6.18;;;5.57;;
64986;SDS011;67903;52.108;9.358;2023-05-10T06:51:14;5.95;;;5.10;;
64986;SDS011;67903;52.108;9.358;2023-05-10T06:54:01;5.40;;;4.90;;
64986;SDS011;67903;52.108;9.358;2023-05-10T06:56:49;4.57;;;4.10;;
64986;SDS011;67903;52.108;9.358;2023-05-10T06:59:36;3.45;;;3.05;;
64986;SDS011;67903;52.108;9.358;2023-05-10T07:02:23;2.88;;;2.50;;
64986;SDS011;67903;52.108;9.358;2023-05-10T07:05:10;1.50;;;1.40;;
64986;SDS011;67903;52.108;9.358;2023-05-10T07:07:58;1.52;;;1.20;;
64986;SDS011;67903;52.108;9.358;2023-05-10T07:10:45;0.93;;;0.90;;
64986;SDS011;67903;52.108;9.358;2023-05-10T07:13:32;0.70;;;0.70;;
64986;SDS011;67903;52.108;9.358;2023-05-10T07:16:20;1.30;;;0.93;;
64986;SDS011;67903;52.108;9.358;2023-05-10T07:19:08;0.60;;;0.60;;
64986;SDS011;67903;52.108;9.358;2023-05-10T07:21:55;2.45;;;1.17;;
64986;SDS011;67903;52.108;9.358;2023-05-10T07:24:42;0.65;;;0.63;;
64986;SDS011;67903;52.108;9.358;2023-05-10T07:27:30;1.42;;;0.88;;
64986;SDS011;67903;52.108;9.358;2023-05-10T07:30:17;1.35;;;1.10;;
64986;SDS011;67903;52.108;9.358;2023-05-10T07:33:04;0.73;;;0.68;;
64986;SDS011;67903;52.108;9.358;2023-05-10T07:35:51;0.52;;;0.52;;
64986;SDS011;67903;52.108;9.358;2023-05-10T07:38:38;0.60;;;0.60;;
64986;SDS011;67903;52.108;9.358;2023-05-10T07:41:26;1.05;;;0.60;;
64986;SDS011;67903;52.108;9.358;2023-05-10T07:44:13;1.15;;;0.90;;
64986;SDS011;67903;52.108;9.358;2023-05-10T07:47:01;0.90;;;0.90;;
64986;SDS011;67903;52.108;9.358;2023-05-10T07:49:48;1.23;;;0.70;;
64986;SDS011;67903;52.108;9.358;2023-05-10T07:52:35;1.35;;;0.70;;
64986;SDS011;67903;52.108;9.358;2023-05-10T07:55:22;1.33;;;1.00;;
64986;SDS011;67903;52.108;9.358;2023-05-10T07:58:09;0.90;;;0.90;;
64986;SDS011;67903;52.108;9.358;2023-05-10T08:00:56;1.00;;;0.90;;
64986;SDS011;67903;52.108;9.358;2023-05-10T08:03:43;0.77;;;0.77;;
64986;SDS011;67903;52.108;9.358;2023-05-10T08:06:30;0.70;;;0.70;;
64986;SDS011;67903;52.108;9.358;2023-05-10T08:09:17;1.15;;;0.70;;
64986;SDS011;67903;52.108;9.358;2023-05-10T08:12:10;0.80;;;0.80;;
64986;SDS011;67903;52.108;9.358;2023-05-10T08:14:57;0.90;;;0.88;;
64986;SDS011;67903;52.108;9.358;2023-05-10T08:17:44;1.15;;;0.90;;
64986;SDS011;67903;52.108;9.358;2023-05-10T08:20:31;0.82;;;0.82;;
64986;SDS011;67903;52.108;9.358;2023-05-10T08:23:18;1.50;;;1.00;;
64986;SDS011;67903;52.108;9.358;2023-05-10T08:26:05;0.88;;;0.88;;
64986;SDS011;67903;52.108;9.358;2023-05-10T08:28:53;1.52;;;1.10;;
64986;SDS011;67903;52.108;9.358;2023-05-10T08:31:40;1.80;;;1.08;;
64986;SDS011;67903;52.108;9.358;2023-05-10T08:34:27;1.40;;;0.90;;
64986;SDS011;67903;52.108;9.358;2023-05-10T08:37:14;1.85;;;1.00;;
64986;SDS011;67903;52.108;9.358;2023-05-10T08:40:01;1.92;;;1.17;;
64986;SDS011;67903;52.108;9.358;2023-05-10T08:42:51;1.70;;;1.38;;
64986;SDS011;67903;52.108;9.358;2023-05-10T08:45:44;1.55;;;1.45;;
64986;SDS011;67903;52.108;9.358;2023-05-10T08:48:34;1.92;;;1.50;;
64986;SDS011;67903;52.108;9.358;2023-05-10T08:51:24;2.85;;;1.52;;
64986;SDS011;67903;52.108;9.358;2023-05-10T08:54:13;4.88;;;2.03;;
64986;SDS011;67903;52.108;9.358;2023-05-10T08:57:01;2.80;;;1.55;;
64986;SDS011;67903;52.108;9.358;2023-05-10T08:59:48;2.35;;;1.48;;
64986;SDS011;67903;52.108;9.358;2023-05-10T09:02:36;2.03;;;1.50;;
64986;SDS011;67903;52.108;9.358;2023-05-10T09:05:23;2.13;;;1.27;;
64986;SDS011;67903;52.108;9.358;2023-05-10T09:08:11;3.88;;;1.80;;
64986;SDS011;67903;52.108;9.358;2023-05-10T09:10:59;3.67;;;1.75;;
64986;SDS011;67903;52.108;9.358;2023-05-10T09:13:48;2.15;;;1.50;;
64986;SDS011;67903;52.108;9.358;2023-05-10T09:16:39;1.85;;;1.50;;
64986;SDS011;67903;52.108;9.358;2023-05-10T09:19:27;2.83;;;1.30;;
64986;SDS011;67903;52.108;9.358;2023-05-10T09:22:14;1.67;;;1.55;;
64986;SDS011;67903;52.108;9.358;2023-05-10T09:27:55;1.45;;;1.35;;
64986;SDS011;67903;52.108;9.358;2023-05-10T09:30:42;1.92;;;1.55;;
64986;SDS011;67903;52.108;9.358;2023-05-10T09:33:29;1.60;;;1.48;;
64986;SDS011;67903;52.108;9.358;2023-05-10T09:36:30;2.65;;;1.70;;
64986;SDS011;67903;52.108;9.358;2023-05-10T09:39:17;5.15;;;1.92;;
64986;SDS011;67903;52.108;9.358;2023-05-10T09:42:05;2.38;;;1.73;;
64986;SDS011;67903;52.108;9.358;2023-05-10T09:44:53;6.28;;;2.22;;
64986;SDS011;67903;52.108;9.358;2023-05-10T09:47:40;2.63;;;1.60;;
64986;SDS011;67903;52.108;9.358;2023-05-10T09:50:28;1.98;;;1.85;;
64986;SDS011;67903;52.108;9.358;2023-05-10T09:53:16;3.28;;;2.10;;
64986;SDS011;67903;52.108;9.358;2023-05-10T09:56:03;3.15;;;2.13;;
64986;SDS011;67903;52.108;9.358;2023-05-10T09:59:01;3.55;;;2.30;;
64986;SDS011;67903;52.108;9.358;2023-05-10T10:01:50;2.60;;;1.73;;
64986;SDS011;67903;52.108;9.358;2023-05-10T10:04:40;2.47;;;1.95;;
64986;SDS011;67903;52.108;9.358;2023-05-10T10:07:28;2.72;;;2.17;;
64986;SDS011;67903;52.108;9.358;2023-05-10T10:10:15;3.13;;;2.33;;
64986;SDS011;67903;52.108;9.358;2023-05-10T10:13:03;3.38;;;2.35;;
64986;SDS011;67903;52.108;9.358;2023-05-10T10:15:52;5.38;;;2.63;;
64986;SDS011;67903;52.108;9.358;2023-05-10T10:18:40;3.20;;;2.30;;
64986;SDS011;67903;52.108;9.358;2023-05-10T10:21:29;3.25;;;2.50;;
64986;SDS011;67903;52.108;9.358;2023-05-10T10:24:17;3.63;;;2.97;;
64986;SDS011;67903;52.108;9.358;2023-05-10T10:27:07;4.20;;;3.08;;
64986;SDS011;67903;52.108;9.358;2023-05-10T10:36:25;3.85;;;2.72;;
64986;SDS011;67903;52.108;9.358;2023-05-10T10:39:14;3.72;;;2.92;;
64986;SDS011;67903;52.108;9.358;2023-05-10T10:42:01;4.82;;;3.15;;
64986;SDS011;67903;52.108;9.358;2023-05-10T10:44:49;4.40;;;2.65;;
64986;SDS011;67903;52.108;9.358;2023-05-10T10:51:09;4.80;;;3.20;;
64986;SDS011;67903;52.108;9.358;2023-05-10T10:54:08;4.35;;;3.30;;
64986;SDS011;67903;52.108;9.358;2023-05-10T10:57:11;3.88;;;3.55;;
64986;SDS011;67903;52.108;9.358;2023-05-10T11:03:08;7.32;;;5.28;;
64986;SDS011;67903;52.108;9.358;2023-05-10T11:06:01;6.63;;;5.13;;
64986;SDS011;67903;52.108;9.358;2023-05-10T11:08:49;7.30;;;5.93;;
64986;SDS011;67903;52.108;9.358;2023-05-10T11:11:48;6.70;;;5.90;;
64986;SDS011;67903;52.108;9.358;2023-05-10T11:14:37;7.72;;;6.93;;
64986;SDS011;67903;52.108;9.358;2023-05-10T11:17:27;10.23;;;7.13;;
64986;SDS011;67903;52.108;9.358;2023-05-10T11:20:15;7.70;;;6.32;;
64986;SDS011;67903;52.108;9.358;2023-05-10T11:23:12;11.80;;;8.40;;
64986;SDS011;67903;52.108;9.358;2023-05-10T11:26:02;11.77;;;8.48;;
64986;SDS011;67903;52.108;9.358;2023-05-10T11:28:49;7.57;;;6.07;;
64986;SDS011;67903;52.108;9.358;2023-05-10T11:31:41;5.90;;;5.30;;
64986;SDS011;67903;52.108;9.358;2023-05-10T11:34:33;5.40;;;4.82;;
64986;SDS011;67903;52.108;9.358;2023-05-10T11:37:20;4.78;;;3.53;;
64986;SDS011;67903;52.108;9.358;2023-05-10T11:40:07;3.85;;;3.38;;
64986;SDS011;67903;52.108;9.358;2023-05-10T11:42:56;3.55;;;2.90;;
64986;SDS011;67903;52.108;9.358;2023-05-10T11:45:43;3.33;;;2.80;;
64986;SDS011;67903;52.108;9.358;2023-05-10T11:48:31;3.72;;;2.88;;
64986;SDS011;67903;52.108;9.358;2023-05-10T11:51:20;3.88;;;3.00;;
64986;SDS011;67903;52.108;9.358;2023-05-10T11:54:08;3.75;;;2.90;;
64986;SDS011;67903;52.108;9.358;2023-05-10T11:56:56;2.95;;;2.60;;
64986;SDS011;67903;52.108;9.358;2023-05-10T11:59:43;2.90;;;2.70;;
64986;SDS011;67903;52.108;9.358;2023-05-10T12:02:30;4.25;;;3.42;;
64986;SDS011;67903;52.108;9.358;2023-05-10T12:05:17;3.63;;;2.95;;
64986;SDS011;67903;52.108;9.358;2023-05-10T12:08:14;3.35;;;3.05;;
64986;SDS011;67903;52.108;9.358;2023-05-10T12:11:06;5.15;;;3.15;;
64986;SDS011;67903;52.108;9.358;2023-05-10T12:13:54;3.92;;;3.47;;
64986;SDS011;67903;52.108;9.358;2023-05-10T12:16:42;4.53;;;3.38;;
64986;SDS011;67903;52.108;9.358;2023-05-10T12:19:36;3.95;;;3.20;;
64986;SDS011;67903;52.108;9.358;2023-05-10T12:22:25;4.20;;;3.80;;
64986;SDS011;67903;52.108;9.358;2023-05-10T12:25:12;5.22;;;3.67;;
64986;SDS011;67903;52.108;9.358;2023-05-10T12:28:00;5.13;;;3.60;;
64986;SDS011;67903;52.108;9.358;2023-05-10T12:30:49;4.80;;;3.45;;
64986;SDS011;67903;52.108;9.358;2023-05-10T12:33:41;4.10;;;3.60;;
64986;SDS011;67903;52.108;9.358;2023-05-10T12:36:29;6.32;;;3.40;;
64986;SDS011;67903;52.108;9.358;2023-05-10T12:39:17;4.95;;;3.58;;
64986;SDS011;67903;52.108;9.358;2023-05-10T12:42:04;4.00;;;3.20;;
64986;SDS011;67903;52.108;9.358;2023-05-10T12:44:56;4.75;;;3.47;;
64986;SDS011;67903;52.108;9.358;2023-05-10T12:47:43;3.35;;;2.97;;
64986;SDS011;67903;52.108;9.358;2023-05-10T12:50:30;3.97;;;3.50;;
64986;SDS011;67903;52.108;9.358;2023-05-10T12:53:17;4.32;;;3.63;;
64986;SDS011;67903;52.108;9.358;2023-05-10T12:56:05;3.75;;;3.40;;
64986;SDS011;67903;52.108;9.358;2023-05-10T12:58:52;5.30;;;4.10;;
64986;SDS011;67903;52.108;9.358;2023-05-10T13:01:39;4.15;;;3.70;;
64986;SDS011;67903;52.108;9.358;2023-05-10T13:04:26;3.42;;;2.97;;
64986;SDS011;67903;52.108;9.358;2023-05-10T13:07:14;5.55;;;3.35;;
64986;SDS011;67903;52.108;9.358;2023-05-10T13:10:01;4.22;;;3.60;;
64986;SDS011;67903;52.108;9.358;2023-05-10T13:12:48;3.90;;;3.60;;
64986;SDS011;67903;52.108;9.358;2023-05-10T13:15:35;4.78;;;3.58;;
64986;SDS011;67903;52.108;9.358;2023-05-10T13:18:22;4.70;;;3.75;;
64986;SDS011;67903;52.108;9.358;2023-05-10T13:21:11;4.35;;;3.40;;
64986;SDS011;67903;52.108;9.358;2023-05-10T13:23:58;4.05;;;3.67;;
64986;SDS011;67903;52.108;9.358;2023-05-10T13:26:45;6.07;;;3.60;;
64986;SDS011;67903;52.108;9.358;2023-05-10T13:29:32;5.47;;;3.80;;
64986;SDS011;67903;52.108;9.358;2023-05-10T13:32:19;6.28;;;3.72;;
64986;SDS011;67903;52.108;9.358;2023-05-10T13:35:06;3.78;;;3.47;;
64986;SDS011;67903;52.108;9.358;2023-05-10T13:37:54;3.83;;;3.10;;
64986;SDS011;67903;52.108;9.358;2023-05-10T13:40:44;4.63;;;3.20;;
64986;SDS011;67903;52.108;9.358;2023-05-10T13:43:31;4.10;;;3.08;;
64986;SDS011;67903;52.108;9.358;2023-05-10T13:46:18;3.75;;;3.35;;
64986;SDS011;67903;52.108;9.358;2023-05-10T13:49:06;3.55;;;3.00;;
64986;SDS011;67903;52.108;9.358;2023-05-10T13:51:53;3.58;;;3.25;;
64986;SDS011;67903;52.108;9.358;2023-05-10T13:54:40;4.15;;;3.55;;
64986;SDS011;67903;52.108;9.358;2023-05-10T13:57:27;4.85;;;3.42;;
64986;SDS011;67903;52.108;9.358;2023-05-10T14:00:16;5.25;;;4.00;;
64986;SDS011;67903;52.108;9.358;2023-05-10T14:03:03;5.15;;;4.07;;
64986;SDS011;67903;52.108;9.358;2023-05-10T14:05:51;5.43;;;3.55;;
64986;SDS011;67903;52.108;9.358;2023-05-10T14:08:39;4.90;;;4.25;;
64986;SDS011;67903;52.108;9.358;2023-05-10T14:11:26;4.95;;;4.43;;
64986;SDS011;67903;52.108;9.358;2023-05-10T14:14:13;4.25;;;3.38;;
64986;SDS011;67903;52.108;9.358;2023-05-10T14:17:03;5.25;;;4.05;;
64986;SDS011;67903;52.108;9.358;2023-05-10T14:19:50;5.63;;;4.45;;
64986;SDS011;67903;52.108;9.358;2023-05-10T14:22:38;5.25;;;4.05;;
64986;SDS011;67903;52.108;9.358;2023-05-10T14:25:25;7.95;;;4.82;;
64986;SDS011;67903;52.108;9.358;2023-05-10T14:28:12;5.63;;;4.60;;
64986;SDS011;67903;52.108;9.358;2023-05-10T14:30:59;7.35;;;4.82;;
64986;SDS011;67903;52.108;9.358;2023-05-10T14:33:47;5.95;;;4.93;;
64986;SDS011;67903;52.108;9.358;2023-05-10T14:36:34;6.13;;;5.07;;
64986;SDS011;67903;52.108;9.358;2023-05-10T14:39:21;7.78;;;5.40;;
64986;SDS011;67903;52.108;9.358;2023-05-10T14:42:09;6.45;;;5.10;;
64986;SDS011;67903;52.108;9.358;2023-05-10T14:44:56;5.10;;;4.60;;
64986;SDS011;67903;52.108;9.358;2023-05-10T14:47:43;5.25;;;4.60;;
64986;SDS011;67903;52.108;9.358;2023-05-10T14:50:31;4.43;;;4.00;;
64986;SDS011;67903;52.108;9.358;2023-05-10T14:53:23;5.35;;;4.25;;
64986;SDS011;67903;52.108;9.358;2023-05-10T14:56:10;5.10;;;4.63;;
64986;SDS011;67903;52.108;9.358;2023-05-10T14:58:57;4.88;;;4.25;;
64986;SDS011;67903;52.108;9.358;2023-05-10T15:01:44;5.40;;;4.93;;
64986;SDS011;67903;52.108;9.358;2023-05-10T15:04:32;4.88;;;4.38;;
64986;SDS011;67903;52.108;9.358;2023-05-10T15:07:20;4.47;;;4.07;;
64986;SDS011;67903;52.108;9.358;2023-05-10T15:10:07;5.30;;;4.18;;
64986;SDS011;67903;52.108;9.358;2023-05-10T15:12:55;6.07;;;3.72;;
64986;SDS011;67903;52.108;9.358;2023-05-10T15:15:42;5.75;;;4.20;;
64986;SDS011;67903;52.108;9.358;2023-05-10T15:18:29;4.32;;;3.90;;
64986;SDS011;67903;52.108;9.358;2023-05-10T15:21:16;4.10;;;3.70;;
64986;SDS011;67903;52.108;9.358;2023-05-10T15:24:04;4.13;;;3.70;;
64986;SDS011;67903;52.108;9.358;2023-05-10T15:26:54;4.78;;;3.88;;
64986;SDS011;67903;52.108;9.358;2023-05-10T15:29:41;4.13;;;3.58;;
64986;SDS011;67903;52.108;9.358;2023-05-10T15:32:29;4.88;;;4.43;;
64986;SDS011;67903;52.108;9.358;2023-05-10T15:35:16;5.07;;;4.57;;
64986;SDS011;67903;52.108;9.358;2023-05-10T15:38:04;5.28;;;4.75;;
64986;SDS011;67903;52.108;9.358;2023-05-10T15:40:51;6.80;;;5.68;;
64986;SDS011;67903;52.108;9.358;2023-05-10T15:43:43;5.80;;;4.82;;
64986;SDS011;67903;52.108;9.358;2023-05-10T15:46:30;5.30;;;4.80;;
64986;SDS011;67903;52.108;9.358;2023-05-10T15:49:17;16.08;;;9.85;;
64986;SDS011;67903;52.108;9.358;2023-05-10T15:52:04;14.95;;;7.90;;
64986;SDS011;67903;52.108;9.358;2023-05-10T15:54:51;13.43;;;6.38;;
64986;SDS011;67903;52.108;9.358;2023-05-10T15:57:39;10.20;;;6.80;;
64986;SDS011;67903;52.108;9.358;2023-05-10T16:00:27;9.18;;;5.82;;
64986;SDS011;67903;52.108;9.358;2023-05-10T16:03:14;8.40;;;6.18;;
64986;SDS011;67903;52.108;9.358;2023-05-10T16:06:01;29.08;;;17.15;;
64986;SDS011;67903;52.108;9.358;2023-05-10T16:08:49;20.88;;;13.68;;
64986;SDS011;67903;52.108;9.358;2023-05-10T16:11:38;32.55;;;20.80;;
64986;SDS011;67903;52.108;9.358;2023-05-10T16:14:25;7.63;;;6.82;;
64986;SDS011;67903;52.108;9.358;2023-05-10T16:17:12;12.45;;;9.23;;
64986;SDS011;67903;52.108;9.358;2023-05-10T16:20:00;10.32;;;7.65;;
64986;SDS011;67903;52.108;9.358;2023-05-10T16:22:48;5.80;;;4.38;;
64986;SDS011;67903;52.108;9.358;2023-05-10T16:25:35;4.18;;;3.72;;
64986;SDS011;67903;52.108;9.358;2023-05-10T16:28:22;3.65;;;3.00;;
64986;SDS011;67903;52.108;9.358;2023-05-10T16:31:09;5.20;;;3.40;;
64986;SDS011;67903;52.108;9.358;2023-05-10T16:33:56;2.85;;;2.05;;
64986;SDS011;67903;52.108;9.358;2023-05-10T16:36:43;2.80;;;2.40;;
64986;SDS011;67903;52.108;9.358;2023-05-10T16:39:30;6.00;;;3.75;;
64986;SDS011;67903;52.108;9.358;2023-05-10T16:42:17;12.63;;;7.80;;
64986;SDS011;67903;52.108;9.358;2023-05-10T16:45:05;3.88;;;2.88;;
64986;SDS011;67903;52.108;9.358;2023-05-10T16:47:53;4.45;;;3.20;;
64986;SDS011;67903;52.108;9.358;2023-05-10T16:50:43;6.53;;;4.55;;
64986;SDS011;67903;52.108;9.358;2023-05-10T16:53:30;11.70;;;7.25;;
64986;SDS011;67903;52.108;9.358;2023-05-10T16:56:18;2.80;;;2.35;;
64986;SDS011;67903;52.108;9.358;2023-05-10T16:59:07;2.13;;;1.92;;
64986;SDS011;67903;52.108;9.358;2023-05-10T17:01:54;5.53;;;3.20;;
64986;SDS011;67903;52.108;9.358;2023-05-10T17:04:41;3.78;;;2.20;;
64986;SDS011;67903;52.108;9.358;2023-05-10T17:07:28;5.03;;;2.42;;
64986;SDS011;67903;52.108;9.358;2023-05-10T17:10:15;4.32;;;2.42;;
64986;SDS011;67903;52.108;9.358;2023-05-10T17:13:02;3.65;;;2.45;;
64986;SDS011;67903;52.108;9.358;2023-05-10T17:15:50;5.22;;;3.40;;
64986;SDS011;67903;52.108;9.358;2023-05-10T17:18:37;3.92;;;2.60;;